Time;durP1;ratioP1;P1;durP2;ratioP2;P2;SDS_P1;SDS_P2;PMS_P1;PMS_P2;Temp;Humidity;BMP_temperature;BMP_pressure;BME280_temperature;BME280_humidity;BME280_pressure;Samples;Min_cycle;Max_cycle;Signal;HPM_P1;HPM_P2
2021/12/24 00:00:07;;;;;;;358.63;27.83;;;9.50;99.90;;;;;;6181141;23;20070;-86
2021/12/24 00:02:33;;;;;;;324.58;26.73;;;8.90;99.90;;;;;;6180864;23;20481;-86
2021/12/24 00:04:59;;;;;;;249.52;25.35;;;11.20;99.90;;;;;;6180868;23;20013;-86
2021/12/24 00:07:25;;;;;;;239.23;25.05;;;;;;;;;;6180618;23;20122;-86
2021/12/24 00:09:50;;;;;;;210.57;25.70;;;11.50;99.90;;;;;;6205704;23;20332;-86
2021/12/24 00:12:19;;;;;;;196.30;23.92;;;11.20;99.90;;;;;;6155800;23;20067;-86
2021/12/24 00:14:50;;;;;;;226.35;27.38;;;8.60;99.90;;;;;;6180284;23;20021;-86
2021/12/24 00:17:22;;;;;;;137.73;23.75;;;13.50;99.90;;;;;;6180189;23;20013;-86
2021/12/24 00:20:06;;;;;;;91.55;22.10;;;8.60;99.90;;;;;;6180622;23;20392;-86
2021/12/24 00:23:15;;;;;;;88.50;20.73;;;7.80;99.90;;;;;;6181121;23;20028;-86
2021/12/24 00:35:09;;;;;;;77.40;21.65;;;8.60;99.90;;;;;;6205555;23;20407;-86
2021/12/24 00:36:47;;;;;;;72.32;20.55;;;11.40;99.90;;;;;;6180507;23;20363;-86
2021/12/24 00:39:12;;;;;;;84.50;21.25;;;9.10;99.90;;;;;;6180798;23;20028;-87
2021/12/24 00:41:39;;;;;;;64.60;20.45;;;9.80;99.90;;;;;;6155923;23;20045;-87
2021/12/24 00:44:05;;;;;;;59.22;19.17;;;9.90;99.90;;;;;;6155588;23;20443;-86
2021/12/24 00:46:31;;;;;;;70.93;21.52;;;11.80;99.90;;;;;;6180437;23;20021;-87
2021/12/24 00:49:00;;;;;;;60.40;19.83;;;14.00;99.90;;;;;;6156422;23;20347;-87
2021/12/24 00:51:55;;;;;;;86.35;23.25;;;12.30;99.90;;;;;;6155875;23;20086;-87
2021/12/24 00:57:06;;;;;;;71.10;21.02;;;11.00;99.90;;;;;;6180473;23;20021;-86
2021/12/24 00:59:31;;;;;;;62.72;20.25;;;13.20;99.90;;;;;;6176846;23;20017;-87
2021/12/24 01:02:03;;;;;;;79.20;21.42;;;8.30;99.90;;;;;;6180459;23;20022;-87
2021/12/24 01:04:29;;;;;;;83.10;21.77;;;11.60;99.90;;;;;;6180808;22;20127;-87
2021/12/24 01:06:55;;;;;;;76.18;23.23;;;9.20;99.90;;;;;;6181068;23;20021;-87
2021/12/24 01:09:21;;;;;;;78.40;21.48;;;9.60;99.90;;;;;;6156069;23;20100;-87
2021/12/24 01:11:46;;;;;;;87.78;21.05;;;11.90;99.90;;;;;;6180392;23;20448;-87
2021/12/24 01:14:12;;;;;;;84.35;22.55;;;11.60;99.90;;;;;;6155528;23;20021;-87
2021/12/24 01:16:45;;;;;;;115.65;23.33;;;13.50;99.90;;;;;;6155597;23;20075;-87
2021/12/24 01:19:18;;;;;;;112.13;24.58;;;10.70;99.90;;;;;;6180423;22;20024;-87
2021/12/24 01:24:28;;;;;;;95.72;21.58;;;13.60;99.90;;;;;;6179271;23;20432;-87
2021/12/24 01:27:23;;;;;;;89.72;21.75;;;11.80;99.90;;;;;;6180635;23;20064;-87
2021/12/24 01:30:00;;;;;;;92.70;21.00;;;10.90;99.90;;;;;;6155169;23;20074;-87
2021/12/24 01:38:16;;;;;;;113.10;20.58;;;7.90;99.90;;;;;;6205460;23;20485;-88
2021/12/24 01:41:05;;;;;;;87.72;19.50;;;9.30;99.90;;;;;;6180784;23;20028;-87
2021/12/24 01:43:31;;;;;;;121.93;21.80;;;8.70;99.90;;;;;;6155545;23;20021;-87
2021/12/24 01:46:00;;;;;;;94.60;20.55;;;11.60;99.90;;;;;;6155922;23;20020;-88
2021/12/24 01:48:25;;;;;;;99.68;21.17;;;11.40;99.90;;;;;;6180274;23;20024;-88
2021/12/24 01:50:53;;;;;;;102.88;20.42;;;10.20;99.90;;;;;;6180397;23;20099;-87
2021/12/24 01:53:22;;;;;;;100.95;20.48;;;9.50;99.90;;;;;;6180248;23;20013;-88
2021/12/24 01:55:50;;;;;;;130.05;21.33;;;8.10;99.90;;;;;;6180170;23;20459;-88
2021/12/24 01:58:27;;;;;;;89.78;18.23;;;9.00;99.90;;;;;;6153456;23;20013;-88
2021/12/24 02:00:55;;;;;;;139.88;20.08;;;12.00;99.90;;;;;;6155481;23;20352;-88
2021/12/24 02:03:22;;;;;;;139.00;20.98;;;11.40;99.90;;;;;;6155511;23;20013;-88
2021/12/24 02:05:48;;;;;;;108.90;19.65;;;8.00;99.90;;;;;;6155498;23;20013;-88
2021/12/24 02:08:15;;;;;;;84.35;17.90;;;7.90;99.90;;;;;;6180185;23;20023;-87
2021/12/24 02:10:43;;;;;;;75.68;16.50;;;14.10;99.90;;;;;;6155972;23;20013;-88
2021/12/24 02:13:10;;;;;;;113.20;19.88;;;8.50;99.90;;;;;;6155243;23;20014;-88
2021/12/24 02:15:58;;;;;;;86.15;17.58;;;7.80;99.90;;;;;;6155498;23;20021;-88
2021/12/24 02:28:14;;;;;;;119.95;19.73;;;9.80;99.90;;;;;;6179834;23;20032;-88
2021/12/24 02:29:36;;;;;;;103.03;18.77;;;8.80;99.90;;;;;;6204923;23;20809;-88
2021/12/24 02:32:02;;;;;;;113.78;19.20;;;12.30;99.90;;;;;;6179317;23;20048;-88
2021/12/24 02:34:28;;;;;;;135.25;20.52;;;9.70;99.90;;;;;;6180050;23;20013;-88
2021/12/24 02:36:53;;;;;;;117.30;20.85;;;10.20;99.90;;;;;;6180304;22;20055;-88
2021/12/24 02:39:19;;;;;;;95.25;19.60;;;11.30;99.90;;;;;;6180133;23;20453;-88
2021/12/24 02:41:45;;;;;;;90.63;17.95;;;7.90;99.90;;;;;;6155062;23;20017;-88
2021/12/24 02:44:11;;;;;;;83.38;18.38;;;11.50;99.90;;;;;;6179721;23;20450;-88
2021/12/24 02:46:54;;;;;;;96.70;18.95;;;12.00;99.90;;;;;;6179770;23;20470;-88
2021/12/24 02:53:56;;;;;;;112.00;20.70;;;12.00;99.90;;;;;;6179976;23;20051;-88
2021/12/24 02:54:50;;;;;;;86.40;19.58;;;11.70;99.90;;;;;;6179840;23;20040;-88
2021/12/24 02:57:20;;;;;;;89.68;21.55;;;11.70;99.90;;;;;;6179890;23;20017;-88
2021/12/24 02:59:58;;;;;;;102.85;22.27;;;8.40;99.90;;;;;;6179776;22;20344;-88
2021/12/24 03:02:24;;;;;;;65.75;21.48;;;12.40;99.90;;;;;;6154715;23;20440;-89
2021/12/24 03:04:50;;;;;;;71.35;20.42;;;13.40;99.90;;;;;;6179771;23;20367;-88
2021/12/24 03:07:16;;;;;;;92.07;23.80;;;12.20;99.90;;;;;;6179713;23;20013;-88
2021/12/24 03:09:42;;;;;;;86.90;20.92;;;12.00;99.90;;;;;;6179625;23;20020;-88
2021/12/24 03:12:08;;;;;;;91.45;25.65;;;8.30;99.90;;;;;;6180396;22;20013;-89
2021/12/24 03:14:33;;;;;;;67.90;19.08;;;12.00;99.90;;;;;;6179676;23;20017;-88
2021/12/24 03:17:06;;;;;;;73.55;21.98;;;8.90;99.90;;;;;;6179649;23;20028;-88
2021/12/24 03:19:33;;;;;;;81.00;23.40;;;7.90;99.90;;;;;;6154983;23;20026;-88
2021/12/24 03:24:51;;;;;;;58.58;19.90;;;11.70;99.90;;;;;;6179535;23;20017;-87
2021/12/24 03:27:17;;;;;;;72.10;20.67;;;9.20;99.90;;;;;;6180741;23;20447;-88
2021/12/24 03:29:42;;;;;;;68.90;20.05;;;11.80;99.90;;;;;;6181275;23;20040;-88
2021/12/24 03:32:08;;;;;;;51.08;16.50;;;9.30;99.90;;;;;;6156208;23;20020;-88
2021/12/24 03:34:34;;;;;;;61.72;18.85;;;11.40;99.90;;;;;;6181494;23;20052;-88
2021/12/24 03:37:01;;;;;;;60.45;15.30;;;11.30;99.90;;;;;;6156986;23;20025;-88
2021/12/24 03:39:27;;;;;;;73.53;17.85;;;12.60;99.90;;;;;;6154963;23;20044;-88
2021/12/24 03:41:53;;;;;;;55.25;15.65;;;9.40;99.90;;;;;;6180686;23;20024;-89
2021/12/24 03:44:19;;;;;;;79.05;18.85;;;13.30;99.90;;;;;;6156046;23;20342;-88
2021/12/24 03:46:59;;;;;;;56.00;15.55;;;12.70;99.90;;;;;;6180875;23;20049;-88
2021/12/24 03:52:15;;;;;;;46.65;13.57;;;11.70;99.90;;;;;;6180609;23;20022;-88
2021/12/24 03:54:55;;;;;;;41.08;13.43;;;12.50;99.90;;;;;;6180638;23;20346;-88
2021/12/24 03:57:21;;;;;;;67.63;14.60;;;12.70;99.90;;;;;;6156304;23;20013;-88
2021/12/24 03:59:47;;;;;;;54.47;15.65;;;8.10;99.90;;;;;;6148557;23;20021;-88
2021/12/24 04:02:13;;;;;;;63.60;17.27;;;12.70;99.90;;;;;;6180730;23;20017;-88
2021/12/24 04:04:39;;;;;;;56.20;16.25;;;13.70;99.90;;;;;;6180551;23;20107;-88
2021/12/24 04:07:06;;;;;;;73.82;17.75;;;9.60;99.90;;;;;;6180895;22;20020;-88
2021/12/24 04:09:33;;;;;;;84.50;21.50;;;9.00;99.90;;;;;;6155964;23;20017;-88
2021/12/24 04:11:59;;;;;;;64.57;17.40;;;9.40;99.90;;;;;;6180824;23;20009;-88
2021/12/24 04:14:24;;;;;;;57.63;17.20;;;10.60;99.90;;;;;;6180499;23;20020;-88
2021/12/24 04:16:50;;;;;;;51.47;14.93;;;8.00;99.90;;;;;;6180627;23;20023;-88
2021/12/24 04:19:37;;;;;;;54.15;14.65;;;11.80;99.90;;;;;;6155759;23;20096;-89
2021/12/24 04:24:54;;;;;;;57.85;14.52;;;10.60;99.90;;;;;;6205663;22;20050;-87
2021/12/24 04:27:24;;;;;;;54.00;15.00;;;8.00;99.90;;;;;;6180816;23;20365;-88
2021/12/24 04:29:50;;;;;;;45.45;13.90;;;9.30;99.90;;;;;;6155883;23;20013;-88
2021/12/24 04:32:19;;;;;;;52.63;13.48;;;9.20;99.90;;;;;;6180341;23;20121;-88
2021/12/24 04:34:49;;;;;;;76.25;14.10;;;8.60;99.90;;;;;;6180712;23;20024;-88
2021/12/24 04:38:01;;;;;;;44.88;12.35;;;9.20;99.90;;;;;;6180025;23;20019;-88
2021/12/24 04:51:15;;;;;;;55.65;11.25;;;10.20;99.90;;;;;;6205445;23;20025;-88
2021/12/24 05:04:36;;;;;;;44.17;9.30;;;8.10;99.90;;;;;;6205424;22;20447;-88
2021/12/24 05:07:12;;;;;;;55.60;10.43;;;12.70;99.90;;;;;;6180307;23;20022;-88
2021/12/24 05:09:39;;;;;;;54.90;10.00;;;10.10;99.90;;;;;;6180201;23;20451;-88
2021/12/24 05:12:05;;;;;;;53.90;10.23;;;9.20;99.90;;;;;;6155414;23;20054;-88
2021/12/24 05:14:34;;;;;;;42.30;8.80;;;12.50;99.90;;;;;;6155539;23;20040;-88
2021/12/24 05:17:22;;;;;;;55.42;10.82;;;8.00;99.90;;;;;;6180306;23;20025;-88
2021/12/24 05:22:33;;;;;;;42.67;7.78;;;8.70;99.90;;;;;;6205499;23;20024;-87
2021/12/24 05:25:00;;;;;;;32.80;7.63;;;9.60;99.90;;;;;;6181030;23;20017;-88
2021/12/24 05:27:26;;;;;;;54.45;9.13;;;11.40;99.90;;;;;;6155696;23;20013;-88
2021/12/24 05:29:53;;;;;;;43.45;8.77;;;12.40;99.90;;;;;;6155514;23;20775;-88
2021/12/24 05:32:19;;;;;;;46.05;7.97;;;10.40;99.90;;;;;;6180550;23;20074;-88
2021/12/24 05:34:44;;;;;;;36.25;7.88;;;13.00;99.90;;;;;;6155372;23;20460;-88
2021/12/24 05:37:10;;;;;;;38.78;8.25;;;9.90;99.90;;;;;;6180612;23;20059;-88
2021/12/24 05:39:36;;;;;;;48.88;8.95;;;12.60;99.90;;;;;;6155721;23;20013;-89
2021/12/24 05:42:03;;;;;;;37.95;7.55;;;7.80;99.90;;;;;;6180755;23;20028;-88
2021/12/24 05:44:31;;;;;;;29.58;6.53;;;12.40;99.90;;;;;;6180448;23;20017;-88
2021/12/24 05:46:57;;;;;;;35.38;6.53;;;9.00;99.90;;;;;;6155960;23;20017;-88
2021/12/24 05:49:23;;;;;;;37.35;9.77;;;10.40;99.90;;;;;;6156032;23;20009;-88
2021/12/24 05:51:48;;;;;;;40.45;7.70;;;10.10;99.90;;;;;;6155238;23;20048;-88
2021/12/24 05:54:14;;;;;;;60.15;8.70;;;7.70;99.90;;;;;;6179219;23;20044;-88
2021/12/24 05:56:40;;;;;;;44.08;7.90;;;8.40;99.90;;;;;;6179958;22;20363;-88
2021/12/24 05:59:06;;;;;;;38.45;7.13;;;13.20;99.90;;;;;;6174567;23;20059;-88
2021/12/24 06:01:34;;;;;;;36.20;7.13;;;12.60;99.90;;;;;;6180093;23;20021;-88
2021/12/24 06:04:00;;;;;;;42.03;8.45;;;11.60;99.90;;;;;;6180401;23;20048;-88
2021/12/24 06:06:26;;;;;;;35.63;7.47;;;8.80;99.90;;;;;;6155680;23;20447;-89
2021/12/24 06:08:52;;;;;;;30.38;6.60;;;8.20;99.90;;;;;;6155904;23;20017;-88
2021/12/24 06:11:18;;;;;;;42.67;8.30;;;9.20;99.90;;;;;;6155874;23;20024;-88
2021/12/24 06:13:43;;;;;;;31.85;6.80;;;11.00;99.90;;;;;;6180489;23;20381;-88
2021/12/24 06:16:10;;;;;;;45.75;8.00;;;8.80;99.90;;;;;;6155433;23;20051;-88
2021/12/24 06:18:39;;;;;;;32.40;6.75;;;13.60;99.90;;;;;;6155652;23;20015;-88
2021/12/24 06:21:05;;;;;;;51.50;7.70;;;12.50;99.90;;;;;;6155276;23;20077;-88
2021/12/24 06:23:33;;;;;;;33.80;5.90;;;9.70;99.90;;;;;;6180065;23;20080;-88
2021/12/24 06:26:00;;;;;;;49.72;6.57;;;7.70;99.90;;;;;;6155420;23;20013;-88
2021/12/24 06:28:27;;;;;;;26.10;5.95;;;10.60;99.90;;;;;;6179990;23;20017;-88
2021/12/24 06:30:54;;;;;;;42.92;6.75;;;12.30;99.90;;;;;;6179920;23;20049;-88
2021/12/24 06:33:21;;;;;;;30.98;6.10;;;12.10;99.90;;;;;;6179915;23;20398;-88
2021/12/24 06:35:46;;;;;;;36.40;6.70;;;9.20;99.90;;;;;;6155474;23;20013;-88
2021/12/24 06:38:12;;;;;;;33.42;6.60;;;13.50;99.90;;;;;;6155220;23;20453;-88
2021/12/24 06:40:39;;;;;;;39.15;7.82;;;8.90;99.90;;;;;;6180099;23;20028;-88
2021/12/24 06:43:06;;;;;;;38.83;6.65;;;13.50;99.90;;;;;;6155435;23;20048;-88
2021/12/24 06:45:33;;;;;;;27.75;5.65;;;11.80;99.90;;;;;;6179900;23;20017;-88
2021/12/24 06:48:01;;;;;;;26.83;5.90;;;8.80;99.90;;;;;;6155208;23;20021;-88
2021/12/24 06:50:27;;;;;;;37.40;7.13;;;9.80;99.90;;;;;;6179789;23;20021;-88
2021/12/24 06:52:54;;;;;;;28.58;5.75;;;10.50;99.90;;;;;;6154724;23;20455;-88
2021/12/24 06:55:21;;;;;;;20.35;4.90;;;10.20;99.90;;;;;;6155010;23;20013;-87
2021/12/24 06:57:48;;;;;;;37.47;5.57;;;9.10;99.90;;;;;;6179644;23;20102;-88
2021/12/24 07:00:17;;;;;;;26.85;5.43;;;10.10;99.90;;;;;;6155460;23;20057;-88
2021/12/24 07:02:43;;;;;;;36.10;6.18;;;11.30;99.90;;;;;;6157085;23;20017;-88
2021/12/24 07:05:09;;;;;;;38.30;5.85;;;9.20;99.90;;;;;;6158097;23;20017;-88
2021/12/24 07:07:35;;;;;;;33.15;5.43;;;10.20;99.90;;;;;;6158516;23;20401;-89
2021/12/24 07:10:05;;;;;;;47.38;7.25;;;10.70;99.90;;;;;;6158177;23;20017;-88
2021/12/24 07:12:34;;;;;;;33.83;5.38;;;9.50;99.90;;;;;;6182753;23;20017;-87
2021/12/24 07:15:00;;;;;;;38.70;6.07;;;11.20;99.90;;;;;;6157805;23;20096;-86
2021/12/24 07:17:26;;;;;;;36.72;5.93;;;11.40;99.90;;;;;;6156824;23;20020;-87
2021/12/24 07:19:52;;;;;;;35.80;5.85;;;10.10;99.90;;;;;;6157923;23;20024;-86
2021/12/24 07:22:18;;;;;;;28.08;5.72;;;10.30;99.90;;;;;;6182983;23;20017;-87
2021/12/24 07:24:48;;;;;;;59.45;6.93;;;10.70;99.90;;;;;;6158513;23;20107;-87
2021/12/24 07:27:14;;;;;;;36.55;5.93;;;10.30;99.90;;;;;;6158345;23;20017;-87
2021/12/24 07:29:40;;;;;;;49.97;7.38;;;10.00;99.90;;;;;;6157986;23;20017;-86
2021/12/24 07:32:06;;;;;;;40.97;6.18;;;10.00;99.90;;;;;;6182445;23;20051;-86
2021/12/24 07:34:32;;;;;;;43.55;6.10;;;10.30;99.90;;;;;;6159396;23;20023;-87
2021/12/24 07:37:23;;;;;;;39.30;6.22;;;9.60;99.90;;;;;;6183290;23;20070;-87
2021/12/24 07:39:49;;;;;;;52.17;6.78;;;10.90;99.90;;;;;;6157950;23;20025;-87
2021/12/24 07:42:14;;;;;;;32.22;5.72;;;9.80;99.90;;;;;;6182256;23;20017;-87
2021/12/24 07:44:40;;;;;;;39.95;5.60;;;9.70;99.90;;;;;;6182628;23;20032;-87
2021/12/24 07:47:15;;;;;;;39.67;5.75;;;10.80;99.90;;;;;;6157768;23;20024;-87
2021/12/24 07:49:42;;;;;;;38.90;6.15;;;9.10;99.90;;;;;;6157964;23;20021;-89
2021/12/24 07:52:11;;;;;;;51.60;6.20;;;11.00;99.90;;;;;;6157755;23;20347;-86
2021/12/24 07:54:43;;;;;;;51.03;6.60;;;9.30;99.90;;;;;;6181569;23;20075;-86
2021/12/24 07:57:11;;;;;;;50.15;6.07;;;9.00;99.90;;;;;;6182695;23;20021;-87
2021/12/24 07:59:39;;;;;;;28.15;5.30;;;9.10;99.90;;;;;;6177842;23;20065;-85
2021/12/24 08:02:09;;;;;;;32.47;5.32;;;10.60;99.90;;;;;;6182495;22;20024;-88
2021/12/24 08:04:39;;;;;;;55.03;8.00;;;9.20;99.90;;;;;;6158473;23;20020;-88
2021/12/24 08:07:05;;;;;;;46.05;6.47;;;10.90;99.90;;;;;;6156616;23;20028;-87
2021/12/24 08:09:31;;;;;;;33.05;5.80;;;11.00;99.90;;;;;;6181501;22;20023;-86
2021/12/24 08:12:00;;;;;;;50.22;7.28;;;10.80;99.90;;;;;;6180865;23;20024;-87
2021/12/24 08:14:25;;;;;;;29.08;5.38;;;9.00;99.90;;;;;;6155508;23;20350;-87
2021/12/24 08:16:51;;;;;;;47.58;6.70;;;13.10;99.90;;;;;;6155875;23;20025;-88
2021/12/24 08:19:18;;;;;;;41.00;6.75;;;10.20;99.90;;;;;;6180563;23;20440;-87
2021/12/24 08:21:47;;;;;;;38.42;6.22;;;10.90;99.90;;;;;;6155706;23;20013;-88
2021/12/24 08:24:14;;;;;;;44.05;5.93;;;9.20;99.90;;;;;;6179489;23;20477;-87
2021/12/24 08:26:40;;;;;;;33.42;5.75;;;11.40;99.90;;;;;;6180678;23;20021;-86
2021/12/24 08:29:06;;;;;;;40.17;6.53;;;10.00;99.90;;;;;;6154955;23;20033;-87
2021/12/24 08:31:34;;;;;;;34.95;6.03;;;9.40;99.90;;;;;;6155297;23;20017;-85
2021/12/24 08:34:01;;;;;;;33.80;5.20;;;10.40;99.90;;;;;;6182109;23;20127;-86
2021/12/24 08:36:27;;;;;;;42.65;7.25;;;9.10;99.90;;;;;;6180298;23;20347;-85
2021/12/24 08:38:55;;;;;;;34.15;6.22;;;9.20;99.90;;;;;;6180352;22;20053;-83
2021/12/24 08:41:21;;;;;;;43.88;6.68;;;11.20;99.90;;;;;;6155709;23;20028;-86
2021/12/24 08:43:48;;;;;;;27.38;5.70;;;12.60;99.90;;;;;;6155505;23;20057;-87
2021/12/24 08:46:16;;;;;;;29.92;5.57;;;12.00;99.90;;;;;;6180526;23;20020;-89
2021/12/24 08:48:42;;;;;;;38.42;6.88;;;9.60;99.90;;;;;;6180517;23;20045;-86
2021/12/24 08:51:08;;;;;;;41.63;9.23;;;9.80;99.90;;;;;;6182476;23;20092;-86
2021/12/24 08:53:34;;;;;;;36.50;7.13;;;9.50;99.90;;;;;;6179962;23;20447;-86
2021/12/24 08:55:59;;;;;;;27.67;6.28;;;10.70;99.90;;;;;;6180314;23;20444;-87
2021/12/24 08:58:25;;;;;;;38.10;7.65;;;10.20;99.90;;;;;;6180047;23;20060;-86
2021/12/24 09:00:51;;;;;;;36.67;7.95;;;10.50;99.90;;;;;;6180307;23;20025;-85
2021/12/24 09:03:17;;;;;;;29.92;5.75;;;9.70;99.90;;;;;;6155517;23;20419;-87
2021/12/24 09:05:43;;;;;;;36.97;6.78;;;10.80;99.90;;;;;;6155825;23;20017;-87
2021/12/24 09:08:09;;;;;;;45.40;7.13;;;9.80;99.90;;;;;;6156401;23;20017;-85
2021/12/24 09:10:34;;;;;;;36.63;6.40;;;9.30;99.90;;;;;;6155676;23;20062;-87
2021/12/24 09:13:00;;;;;;;30.42;6.03;;;10.30;99.90;;;;;;6180319;23;20018;-87
2021/12/24 09:15:53;;;;;;;27.70;5.28;;;9.10;99.90;;;;;;6181780;23;20047;-87
2021/12/24 09:18:20;;;;;;;20.48;3.90;;;11.00;99.90;;;;;;6179662;23;20017;-88
2021/12/24 09:20:46;;;;;;;9.23;2.28;;;9.20;99.90;;;;;;6155634;23;20025;-87
2021/12/24 09:23:13;;;;;;;9.55;2.15;;;9.10;99.90;;;;;;6155223;23;20108;-90
2021/12/24 09:25:40;;;;;;;11.55;2.42;;;10.90;99.90;;;;;;6155959;23;20400;-87
2021/12/24 09:28:06;;;;;;;14.27;1.98;;;9.10;99.90;;;;;;6180377;23;20339;-87
2021/12/24 09:30:33;;;;;;;8.38;1.80;;;10.30;99.90;;;;;;6180466;23;20071;-91
2021/12/24 09:33:00;;;;;;;9.18;2.63;;;10.30;99.90;;;;;;6155793;23;20020;-85
2021/12/24 09:35:26;;;;;;;11.80;2.10;;;9.10;99.90;;;;;;6178231;23;20017;-86
2021/12/24 09:37:53;;;;;;;13.15;1.85;;;12.80;99.90;;;;;;6180094;23;20017;-87
2021/12/24 09:40:21;;;;;;;13.05;2.03;;;10.10;99.90;;;;;;6180337;23;20021;-88
2021/12/24 09:42:47;;;;;;;12.38;1.80;;;9.90;99.90;;;;;;6180062;23;20092;-89
2021/12/24 09:45:14;;;;;;;11.15;1.38;;;12.80;99.90;;;;;;6178269;23;20092;-87
2021/12/24 09:47:40;;;;;;;1.20;0.73;;;10.50;99.90;;;;;;6178179;23;20024;-88
2021/12/24 09:50:13;;;;;;;2.78;1.25;;;8.70;99.90;;;;;;6178274;23;20182;-90
2021/12/24 09:52:40;;;;;;;4.50;1.52;;;12.40;99.90;;;;;;6155215;23;20020;-86
2021/12/24 09:55:08;;;;;;;3.00;1.38;;;10.60;99.90;;;;;;6180249;23;20052;-88
2021/12/24 09:57:34;;;;;;;5.47;1.67;;;9.50;99.90;;;;;;6180148;23;20017;-90
2021/12/24 10:00:00;;;;;;;6.22;1.70;;;9.30;99.90;;;;;;6148373;23;20405;-90
2021/12/24 10:02:53;;;;;;;8.85;1.70;;;8.70;99.90;;;;;;6156223;23;20025;-92
2021/12/24 10:09:03;;;;;;;3.28;1.50;;;10.70;99.90;;;;;;6183553;23;20024;-87
2021/12/24 10:11:47;;;;;;;5.00;1.30;;;8.70;99.90;;;;;;6155930;23;20093;-91
2021/12/24 10:14:13;;;;;;;4.10;1.30;;;7.60;99.90;;;;;;6155363;23;20359;-90
2021/12/24 10:16:43;;;;;;;3.35;1.38;;;10.80;99.90;;;;;;6156108;23;20017;-90
2021/12/24 10:19:09;;;;;;;4.65;1.23;;;12.90;99.90;;;;;;6156026;23;20109;-89
2021/12/24 10:21:38;;;;;;;3.28;1.33;;;8.50;99.90;;;;;;6155314;23;20017;-91
2021/12/24 10:24:13;;;;;;;3.92;1.42;;;7.60;99.90;;;;;;6154840;23;20021;-88
2021/12/24 10:26:46;;;;;;;4.25;1.20;;;7.70;99.90;;;;;;6154769;23;20096;-89
2021/12/24 10:29:16;;;;;;;5.63;1.50;;;10.30;99.90;;;;;;6180028;23;20013;-90
2021/12/24 10:31:47;;;;;;;2.20;1.45;;;10.70;99.90;;;;;;6179433;23;20373;-87
2021/12/24 10:34:17;;;;;;;9.05;2.05;;;8.60;99.90;;;;;;6155235;23;20036;-87
2021/12/24 10:36:53;;;;;;;4.60;2.03;;;10.80;99.90;;;;;;6179404;23;20056;-88
2021/12/24 10:39:21;;;;;;;6.97;2.10;;;11.70;99.90;;;;;;6155442;23;20013;-88
2021/12/24 10:41:48;;;;;;;6.80;1.95;;;11.30;99.90;;;;;;6180607;23;20017;-90
2021/12/24 10:44:27;;;;;;;6.07;2.08;;;9.90;99.90;;;;;;6154931;23;20442;-91
2021/12/24 10:47:05;;;;;;;5.80;2.05;;;7.30;99.90;;;;;;6155679;23;20023;-87
2021/12/24 10:49:53;;;;;;;3.95;2.20;;;7.30;99.90;;;;;;6179878;23;20074;-88
2021/12/24 10:55:01;;;;;;;4.57;2.35;;;10.30;99.90;;;;;;6205422;23;20021;-89
2021/12/24 10:57:31;;;;;;;5.32;2.90;;;7.10;99.90;;;;;;6154972;23;20071;-90
2021/12/24 11:00:23;;;;;;;8.15;2.78;;;8.70;99.90;;;;;;6154251;23;20013;-89
2021/12/24 11:02:55;;;;;;;11.25;3.00;;;10.10;99.90;;;;;;6131113;23;20033;-89
2021/12/24 11:05:30;;;;;;;5.07;3.10;;;7.80;99.90;;;;;;6155195;23;20021;-87
2021/12/24 11:07:58;;;;;;;5.93;2.63;;;7.00;99.90;;;;;;6155263;22;20013;-86
2021/12/24 11:10:27;;;;;;;6.53;2.85;;;10.80;99.90;;;;;;6129255;23;20447;-89
2021/12/24 11:12:56;;;;;;;15.77;2.90;;;6.00;99.90;;;;;;6155095;23;20066;-88
2021/12/24 11:15:25;;;;;;;9.93;2.47;;;7.30;99.90;;;;;;6259081;22;20360;-87
2021/12/24 11:17:53;;;;;;;9.10;3.10;;;7.70;99.90;;;;;;6155460;23;20020;-89
2021/12/24 11:20:19;;;;;;;3.90;2.10;;;12.40;99.90;;;;;;6130027;23;20096;-92
2021/12/24 11:23:06;;;;;;;7.75;2.20;;;8.10;99.90;;;;;;6125903;23;20348;-89
2021/12/24 11:25:35;;;;;;;6.85;2.28;;;10.70;99.90;;;;;;6280032;22;20081;-90
2021/12/24 11:28:02;;;;;;;9.07;2.50;;;12.00;99.90;;;;;;6170600;22;20429;-90
2021/12/24 11:30:30;;;;;;;15.70;3.17;;;6.90;99.90;;;;;;6124567;23;20456;-90
2021/12/24 11:32:56;;;;;;;4.72;2.10;;;7.80;99.90;;;;;;6124207;23;20021;-91
2021/12/24 11:35:23;;;;;;;7.85;2.47;;;10.60;99.90;;;;;;6128490;23;20458;-90
2021/12/24 11:37:53;;;;;;;6.55;2.22;;;8.50;99.90;;;;;;6130339;23;20013;-91
2021/12/24 11:40:22;;;;;;;10.40;2.35;;;9.20;99.90;;;;;;6128330;23;20018;-89
2021/12/24 11:42:53;;;;;;;7.32;2.10;;;9.90;99.90;;;;;;6153348;23;20027;-89
2021/12/24 11:45:22;;;;;;;12.02;2.30;;;8.50;99.90;;;;;;6127483;23;20096;-89
2021/12/24 11:47:50;;;;;;;8.95;1.98;;;10.70;99.90;;;;;;6154250;23;20017;-88
2021/12/24 11:50:16;;;;;;;13.32;2.40;;;7.30;99.90;;;;;;6128118;23;20353;-89
2021/12/24 11:52:45;;;;;;;5.90;2.50;;;10.10;99.90;;;;;;6154228;23;20020;-89
2021/12/24 11:55:11;;;;;;;5.22;2.28;;;7.20;99.90;;;;;;6130001;23;20069;-89
2021/12/24 11:57:49;;;;;;;5.72;2.30;;;7.90;99.90;;;;;;6154825;23;20048;-89
2021/12/24 12:00:21;;;;;;;7.53;2.55;;;9.50;99.90;;;;;;6129750;23;20418;-89
2021/12/24 12:02:50;;;;;;;6.35;2.30;;;9.20;99.90;;;;;;6179480;22;20025;-89
2021/12/24 12:05:32;;;;;;;13.23;2.28;;;11.60;99.90;;;;;;6154603;23;20056;-88
2021/12/24 12:08:16;;;;;;;13.02;2.78;;;11.00;99.90;;;;;;6179226;23;20500;-89
2021/12/24 12:10:51;;;;;;;4.40;2.30;;;8.70;99.90;;;;;;6154298;23;20477;-89
2021/12/24 12:13:39;;;;;;;10.60;2.72;;;7.30;99.90;;;;;;6154460;23;20013;-89
2021/12/24 12:16:08;;;;;;;10.48;2.85;;;9.90;99.90;;;;;;6179647;23;20017;-88
2021/12/24 12:18:44;;;;;;;10.80;2.70;;;10.30;99.90;;;;;;6154661;23;20054;-88
2021/12/24 12:21:12;;;;;;;7.90;2.47;;;9.00;99.90;;;;;;6179101;23;20048;-88
2021/12/24 12:23:53;;;;;;;4.80;2.78;;;9.00;99.90;;;;;;6154080;23;20046;-89
2021/12/24 12:26:37;;;;;;;6.82;2.95;;;7.10;99.90;;;;;;6154952;23;20017;-88
2021/12/24 12:29:21;;;;;;;5.70;2.90;;;10.20;99.90;;;;;;6154263;23;20088;-88
2021/12/24 12:31:54;;;;;;;5.43;2.70;;;7.10;99.90;;;;;;6154405;23;20024;-89
2021/12/24 12:34:46;;;;;;;10.35;2.95;;;8.10;99.90;;;;;;6180695;23;20024;-88
2021/12/24 12:37:17;;;;;;;7.30;3.10;;;9.00;99.90;;;;;;6155884;23;20013;-91
2021/12/24 12:39:45;;;;;;;7.68;2.80;;;9.00;99.90;;;;;;6155103;23;20096;-87
2021/12/24 12:42:14;;;;;;;7.50;2.78;;;11.40;99.90;;;;;;6180903;23;20347;-88
2021/12/24 12:44:48;;;;;;;5.97;3.17;;;11.00;99.90;;;;;;6180318;23;20029;-88
2021/12/24 12:47:22;;;;;;;7.30;3.08;;;10.10;99.90;;;;;;6155685;23;20069;-88
2021/12/24 12:49:51;;;;;;;9.35;2.80;;;10.40;99.90;;;;;;6155700;23;20078;-89
2021/12/24 12:52:24;;;;;;;4.78;2.67;;;8.20;99.90;;;;;;6180175;23;20095;-86
2021/12/24 12:54:56;;;;;;;5.60;2.45;;;10.50;99.90;;;;;;6180607;23;20323;-87
2021/12/24 12:57:29;;;;;;;8.18;2.95;;;7.40;99.90;;;;;;6154864;23;20100;-89
2021/12/24 13:03:24;;;;;;;6.63;2.78;;;7.90;99.90;;;;;;6180700;23;20021;-88
2021/12/24 13:05:53;;;;;;;5.97;2.30;;;7.80;99.90;;;;;;6155603;23;20032;-92
2021/12/24 13:08:24;;;;;;;5.38;2.40;;;7.50;99.90;;;;;;6155512;23;20021;-88
2021/12/24 13:11:04;;;;;;;4.68;2.42;;;7.60;99.90;;;;;;6131027;23;20023;-90
2021/12/24 13:13:32;;;;;;;7.47;2.38;;;9.00;99.90;;;;;;6131351;23;20017;-91
2021/12/24 13:15:58;;;;;;;5.85;2.55;;;10.50;99.90;;;;;;6131017;23;20017;-90
2021/12/24 13:18:31;;;;;;;4.03;2.28;;;9.00;99.90;;;;;;6155346;23;20014;-90
2021/12/24 13:23:34;;;;;;;6.47;2.38;;;9.60;99.90;;;;;;6155543;23;20017;-89
2021/12/24 13:26:15;;;;;;;4.30;2.20;;;10.70;99.90;;;;;;6155410;23;20032;-88
2021/12/24 13:29:03;;;;;;;3.42;2.13;;;7.70;99.90;;;;;;6131185;23;20458;-88
2021/12/24 13:31:30;;;;;;;5.00;2.22;;;7.60;99.90;;;;;;6155152;23;20043;-87
2021/12/24 13:33:57;;;;;;;7.70;2.15;;;8.80;99.90;;;;;;6155319;23;20024;-89
2021/12/24 13:36:25;;;;;;;12.70;2.00;;;9.70;99.90;;;;;;6131310;23;20331;-86
2021/12/24 13:39:05;;;;;;;3.58;2.30;;;10.70;99.90;;;;;;6155858;23;20064;-90
2021/12/24 13:41:30;;;;;;;3.97;2.35;;;9.40;99.90;;;;;;6155576;23;20052;-88
2021/12/24 13:43:57;;;;;;;8.45;2.40;;;9.40;99.90;;;;;;6155981;23;20014;-90
2021/12/24 13:46:25;;;;;;;12.40;2.35;;;11.00;99.90;;;;;;6155311;23;20021;-91
2021/12/24 13:49:14;;;;;;;5.97;2.30;;;10.40;99.90;;;;;;6147696;23;20017;-93
2021/12/24 13:54:33;;;;;;;7.05;1.90;;;10.80;99.90;;;;;;6285713;22;20276;-90
2021/12/24 13:57:02;;;;;;;8.27;1.98;;;11.80;99.90;;;;;;6131525;23;20017;-92
2021/12/24 13:59:29;;;;;;;4.55;1.65;;;7.60;99.90;;;;;;6131505;23;20048;-92
2021/12/24 14:02:24;;;;;;;7.80;2.50;;;8.60;99.90;;;;;;6154524;22;20021;-89
2021/12/24 14:05:01;;;;;;;7.55;2.05;;;10.30;99.90;;;;;;6102511;23;20017;-92
2021/12/24 14:07:26;;;;;;;9.70;2.38;;;12.30;99.90;;;;;;6126711;23;20022;-88
2021/12/24 14:09:52;;;;;;;5.93;1.63;;;9.30;99.90;;;;;;6124983;23;20091;-90
2021/12/24 14:12:24;;;;;;;8.10;2.25;;;8.10;99.90;;;;;;6101468;23;20082;-89